TimeCST,TemperatureF,Dew PointF,Humidity,Sea Level PressureIn,VisibilityMPH,Wind Direction,Wind SpeedMPH,Gust SpeedMPH,PrecipitationIn,Events,Conditions,WindDirDegrees,DateUTC
12:54 AM,48.0,32.0,54,29.75,10.0,Calm,Calm,-,N/A,,Clear,0,2011-11-15 06:54:00
1:54 AM,43.0,33.1,68,29.76,10.0,SE,6.9,-,N/A,,Clear,140,2011-11-15 07:54:00
2:54 AM,48.0,33.1,56,29.75,10.0,SSE,9.2,-,N/A,,Clear,160,2011-11-15 08:54:00
3:54 AM,44.1,34.0,68,29.75,10.0,South,5.8,-,N/A,,Clear,180,2011-11-15 09:54:00
4:54 AM,42.1,35.1,76,29.75,10.0,South,4.6,-,N/A,,Clear,180,2011-11-15 10:54:00
5:54 AM,43.0,35.1,74,29.74,10.0,South,3.5,-,N/A,,Clear,180,2011-11-15 11:54:00
6:54 AM,41.0,33.8,76,29.74,10.0,Calm,Calm,-,N/A,,Clear,0,2011-11-15 12:54:00
7:54 AM,46.0,37.0,71,29.77,10.0,SSW,3.5,-,N/A,,Clear,210,2011-11-15 13:54:00
8:54 AM,51.1,39.0,63,29.77,10.0,South,9.2,-,N/A,,Clear,190,2011-11-15 14:54:00
9:54 AM,57.0,39.9,53,29.76,10.0,SSW,12.7,-,N/A,,Clear,210,2011-11-15 15:54:00
10:54 AM,59.0,39.0,48,29.77,10.0,SW,9.2,-,N/A,,Clear,230,2011-11-15 16:54:00
11:54 AM,62.1,37.9,41,29.73,10.0,SSW,12.7,-,N/A,,Clear,210,2011-11-15 17:54:00
12:54 PM,64.0,36.0,35,29.71,10.0,SW,8.1,-,N/A,,Clear,230,2011-11-15 18:54:00
1:54 PM,64.9,41.0,42,29.70,10.0,SSW,10.4,18.4,N/A,,Clear,210,2011-11-15 19:54:00
2:54 PM,64.9,43.0,45,29.70,10.0,SW,10.4,-,N/A,,Clear,220,2011-11-15 20:54:00
3:54 PM,63.0,43.0,48,29.72,10.0,SW,5.8,-,N/A,,Clear,230,2011-11-15 21:54:00
4:54 PM,59.0,43.0,55,29.74,10.0,Calm,Calm,-,N/A,,Clear,0,2011-11-15 22:54:00
5:54 PM,55.9,42.1,60,29.77,10.0,SSW,3.5,-,N/A,,Clear,200,2011-11-15 23:54:00
6:54 PM,48.0,37.9,68,29.81,10.0,NNW,8.1,-,N/A,,Clear,330,2011-11-16 00:54:00
7:54 PM,50.0,34.0,54,29.84,10.0,NNW,10.4,-,N/A,,Clear,340,2011-11-16 01:54:00
8:54 PM,48.0,32.0,54,29.88,10.0,NNW,11.5,-,N/A,,Clear,340,2011-11-16 02:54:00
9:54 PM,46.9,28.0,48,29.91,10.0,NNW,13.8,-,N/A,,Clear,340,2011-11-16 03:54:00
10:54 PM,45.0,26.1,48,29.93,10.0,NNW,16.1,-,N/A,,Clear,340,2011-11-16 04:54:00
11:54 PM,42.8,26.6,53,29.96,10.0,North,13.8,-,N/A,,Clear,350,2011-11-16 05:54:00